Time;durP1;ratioP1;P1;durP2;ratioP2;P2;SDS_P1;SDS_P2;PMS_P1;PMS_P2;Temp;Humidity;BMP_temperature;BMP_pressure;BME280_temperature;BME280_humidity;BME280_pressure;Samples;Min_cycle;Max_cycle;Signal;HPM_P1;HPM_P2
2022/03/29 00:01:09;;;;;;;17.85;12.82;;;7.90;39.20;;;;;;5091797;28;20193;-61
2022/03/29 00:03:36;;;;;;;17.67;12.02;;;7.80;39.40;;;;;;5096815;28;20195;-61
2022/03/29 00:06:03;;;;;;;27.60;17.33;;;7.60;39.70;;;;;;5111870;28;20199;-63
2022/03/29 00:08:30;;;;;;;24.60;11.80;;;7.50;39.80;;;;;;5101104;28;20254;-63
2022/03/29 00:10:59;;;;;;;18.67;13.02;;;7.50;40.10;;;;;;5091598;28;20196;-62
2022/03/29 00:13:26;;;;;;;20.33;12.00;;;7.50;39.90;;;;;;5100509;28;20177;-61
2022/03/29 00:15:53;;;;;;;19.10;11.30;;;7.40;39.70;;;;;;5091545;28;20204;-62
2022/03/29 00:18:20;;;;;;;27.05;13.10;;;7.40;40.70;;;;;;5083144;28;20209;-61
2022/03/29 00:20:47;;;;;;;16.17;12.60;;;7.30;40.50;;;;;;5071257;28;20194;-61
2022/03/29 00:23:14;;;;;;;16.85;10.32;;;7.20;40.80;;;;;;5080202;28;20182;-61
2022/03/29 00:25:41;;;;;;;16.30;12.30;;;7.00;40.90;;;;;;5095289;28;20539;-62
2022/03/29 00:28:10;;;;;;;17.63;11.23;;;6.90;41.30;;;;;;5089444;28;20182;-62
2022/03/29 00:30:43;;;;;;;19.05;11.48;;;6.90;41.70;;;;;;5074743;28;20186;-62
2022/03/29 00:33:10;;;;;;;15.77;10.80;;;6.90;41.90;;;;;;5078953;28;20370;-62
2022/03/29 00:35:38;;;;;;;17.90;11.00;;;6.90;42.80;;;;;;5094794;28;20674;-62
2022/03/29 00:38:05;;;;;;;14.48;10.25;;;6.80;42.40;;;;;;5090854;28;20673;-61
2022/03/29 00:40:33;;;;;;;16.00;11.35;;;6.80;43.00;;;;;;5074892;28;20552;-62
2022/03/29 00:43:00;;;;;;;15.35;9.75;;;6.90;43.00;;;;;;5076139;28;20190;-61
2022/03/29 00:45:29;;;;;;;14.68;10.32;;;6.80;43.10;;;;;;5095082;28;20274;-62
2022/03/29 00:47:56;;;;;;;12.07;8.48;;;6.80;42.80;;;;;;5076618;28;20705;-62
2022/03/29 00:50:23;;;;;;;13.52;10.30;;;6.80;43.10;;;;;;5074744;28;20201;-62
2022/03/29 00:52:51;;;;;;;14.45;9.90;;;6.80;43.30;;;;;;5090290;28;20197;-61
2022/03/29 00:55:19;;;;;;;14.90;11.38;;;6.80;43.10;;;;;;5094558;28;20660;-62
2022/03/29 00:57:48;;;;;;;14.93;10.75;;;6.80;43.30;;;;;;5079230;28;20251;-62
2022/03/29 01:00:16;;;;;;;15.57;10.20;;;6.80;43.80;;;;;;5074198;28;20622;-62
2022/03/29 01:02:45;;;;;;;17.73;9.85;;;6.90;43.80;;;;;;5089560;28;20636;-61
2022/03/29 01:05:13;;;;;;;11.50;8.50;;;6.90;43.70;;;;;;5094465;28;20243;-62
2022/03/29 01:07:40;;;;;;;16.60;10.23;;;6.90;43.90;;;;;;5079616;28;20648;-62
2022/03/29 01:10:08;;;;;;;16.55;10.02;;;7.00;43.80;;;;;;5074088;28;20189;-61
2022/03/29 01:12:37;;;;;;;17.52;11.25;;;7.00;43.70;;;;;;5086468;28;20192;-62
2022/03/29 01:15:09;;;;;;;15.52;10.32;;;7.00;43.70;;;;;;5107702;28;20224;-62
2022/03/29 01:17:39;;;;;;;14.18;9.60;;;7.00;43.40;;;;;;5101059;28;20221;-61
2022/03/29 01:20:12;;;;;;;15.02;11.65;;;7.00;43.70;;;;;;5112858;28;20211;-62
2022/03/29 01:22:43;;;;;;;14.57;9.48;;;7.00;43.60;;;;;;5101175;28;20601;-62
2022/03/29 01:25:15;;;;;;;16.20;9.98;;;7.10;44.00;;;;;;5094090;28;20193;-61
2022/03/29 01:27:45;;;;;;;16.55;11.02;;;7.10;43.50;;;;;;5106473;28;20249;-62
2022/03/29 01:30:13;;;;;;;19.00;10.10;;;7.20;43.50;;;;;;5114219;28;20241;-62
2022/03/29 01:32:41;;;;;;;17.80;10.35;;;7.20;43.50;;;;;;5111649;28;20199;-62
2022/03/29 01:35:09;;;;;;;13.50;9.35;;;7.30;43.10;;;;;;5114025;28;20188;-61
2022/03/29 01:37:37;;;;;;;14.98;10.60;;;7.20;42.80;;;;;;5103107;28;20177;-62
2022/03/29 01:40:12;;;;;;;13.80;10.10;;;7.20;42.50;;;;;;5093719;28;20243;-62
2022/03/29 01:42:41;;;;;;;14.52;10.23;;;7.10;42.70;;;;;;5104013;28;20244;-64
2022/03/29 01:45:10;;;;;;;16.52;9.43;;;7.00;42.40;;;;;;5114015;28;20188;-62
2022/03/29 01:47:40;;;;;;;15.20;10.65;;;6.90;42.50;;;;;;5103449;28;20263;-62
2022/03/29 01:50:08;;;;;;;15.57;9.80;;;6.80;42.30;;;;;;5093520;28;20225;-62
2022/03/29 01:52:40;;;;;;;16.17;9.98;;;6.50;42.60;;;;;;5101618;28;20647;-62
2022/03/29 01:55:12;;;;;;;17.45;10.35;;;6.30;43.20;;;;;;5113786;28;20542;-62
2022/03/29 01:57:40;;;;;;;15.90;10.27;;;6.10;44.00;;;;;;5104518;28;20548;-62
2022/03/29 02:02:56;;;;;;;18.30;11.63;;;6.00;44.50;;;;;;5113780;28;20172;-62
2022/03/29 02:05:24;;;;;;;17.00;11.23;;;6.00;44.80;;;;;;5109410;28;20216;-61
2022/03/29 02:07:51;;;;;;;16.25;10.95;;;6.00;44.90;;;;;;5093189;28;20193;-62
2022/03/29 02:10:21;;;;;;;19.65;11.48;;;6.00;45.10;;;;;;5095407;28;20200;-61
2022/03/29 02:12:49;;;;;;;17.65;12.13;;;6.00;45.20;;;;;;5113409;28;20220;-62
2022/03/29 02:15:17;;;;;;;15.65;10.65;;;5.90;45.00;;;;;;5111371;28;20224;-61
2022/03/29 02:17:46;;;;;;;16.23;10.43;;;6.00;45.40;;;;;;5093084;28;20556;-62
2022/03/29 02:20:14;;;;;;;19.83;11.80;;;5.90;44.90;;;;;;5093069;28;20189;-62
2022/03/29 02:22:41;;;;;;;14.23;9.77;;;5.90;44.90;;;;;;5113290;28;20588;-66
2022/03/29 02:25:10;;;;;;;17.63;10.73;;;6.00;45.00;;;;;;5092991;28;20189;-61
2022/03/29 02:27:41;;;;;;;15.13;10.50;;;6.00;44.90;;;;;;5092650;28;20280;-61
2022/03/29 02:30:10;;;;;;;16.85;10.30;;;6.00;45.00;;;;;;5111379;28;20235;-62
2022/03/29 02:32:37;;;;;;;33.60;18.92;;;6.00;45.00;;;;;;5113054;28;20637;-61
2022/03/29 02:35:08;;;;;;;23.65;13.55;;;6.00;45.20;;;;;;5093385;28;20184;-61
2022/03/29 02:37:35;;;;;;;17.92;11.15;;;6.00;45.50;;;;;;5092525;28;20189;-65
2022/03/29 02:40:03;;;;;;;13.57;9.25;;;6.00;45.30;;;;;;5110661;28;20185;-62
2022/03/29 02:42:30;;;;;;;18.48;10.30;;;6.00;45.10;;;;;;5113014;28;20231;-62
2022/03/29 02:45:02;;;;;;;15.60;10.70;;;6.00;45.10;;;;;;5094765;28;20189;-63
2022/03/29 02:47:29;;;;;;;24.33;11.20;;;6.00;45.00;;;;;;5092769;28;20201;-62
2022/03/29 02:49:56;;;;;;;16.30;9.98;;;5.90;45.50;;;;;;5108736;28;20242;-62
2022/03/29 02:52:23;;;;;;;18.05;9.98;;;5.90;45.70;;;;;;5112424;28;20607;-61
2022/03/29 02:54:50;;;;;;;14.60;9.32;;;5.80;45.90;;;;;;5097185;28;20196;-61
2022/03/29 02:57:17;;;;;;;15.00;9.75;;;5.80;45.80;;;;;;5092499;28;20189;-62
2022/03/29 02:59:45;;;;;;;15.35;9.55;;;5.80;45.60;;;;;;5105497;28;20188;-62
2022/03/29 03:02:14;;;;;;;16.35;10.25;;;5.80;45.70;;;;;;5112506;28;20196;-61
2022/03/29 03:04:41;;;;;;;16.33;10.20;;;5.70;45.90;;;;;;5099471;28;20201;-61
2022/03/29 03:07:08;;;;;;;15.27;9.43;;;5.70;46.40;;;;;;5092048;28;20685;-62
2022/03/29 03:09:35;;;;;;;15.02;9.68;;;5.70;46.60;;;;;;5102905;28;20687;-62
2022/03/29 03:12:02;;;;;;;21.42;10.55;;;5.70;46.60;;;;;;5112615;28;20213;-62
2022/03/29 03:14:30;;;;;;;30.00;12.85;;;5.70;46.60;;;;;;5101981;28;20215;-62
2022/03/29 03:16:57;;;;;;;19.65;9.63;;;5.70;46.60;;;;;;5109829;28;20192;-61
2022/03/29 03:19:25;;;;;;;15.85;10.10;;;5.60;46.20;;;;;;5093020;28;20192;-62
2022/03/29 03:21:53;;;;;;;17.70;10.88;;;5.70;46.50;;;;;;5112444;28;20188;-61
2022/03/29 03:24:20;;;;;;;16.30;11.55;;;5.70;46.70;;;;;;5095037;28;20181;-62
2022/03/29 03:26:47;;;;;;;16.42;9.85;;;5.70;46.80;;;;;;5091993;28;20272;-62
2022/03/29 03:29:15;;;;;;;16.85;11.00;;;5.70;46.90;;;;;;5107753;28;20247;-61
2022/03/29 03:31:42;;;;;;;18.77;10.30;;;5.60;46.90;;;;;;5112034;28;20196;-62
2022/03/29 03:34:10;;;;;;;17.20;10.10;;;5.60;47.00;;;;;;5100025;28;20243;-62
2022/03/29 03:36:39;;;;;;;11.65;9.23;;;5.60;46.70;;;;;;5091601;28;20254;-61
2022/03/29 03:39:06;;;;;;;15.90;10.82;;;5.60;46.90;;;;;;5091734;28;20211;-62
2022/03/29 03:41:33;;;;;;;16.80;10.57;;;5.60;47.20;;;;;;5091824;28;20230;-61
2022/03/29 03:44:01;;;;;;;16.92;10.32;;;5.60;46.90;;;;;;5091687;28;20197;-62
2022/03/29 03:46:28;;;;;;;12.05;9.85;;;5.60;46.80;;;;;;5103451;28;20184;-62
2022/03/29 03:48:56;;;;;;;15.25;10.27;;;5.70;46.70;;;;;;5112197;28;20591;-61
2022/03/29 03:51:23;;;;;;;14.75;9.52;;;5.70;46.30;;;;;;5100946;28;20191;-62
2022/03/29 03:53:52;;;;;;;13.25;9.80;;;5.70;46.40;;;;;;5091619;28;20246;-62
2022/03/29 03:56:20;;;;;;;15.55;8.77;;;5.60;47.40;;;;;;5100898;28;20528;-62
2022/03/29 03:58:47;;;;;;;15.75;10.70;;;5.70;48.00;;;;;;5115899;28;20945;-61
2022/03/29 04:01:14;;;;;;;16.30;10.35;;;5.70;48.30;;;;;;5107363;28;20189;-61
2022/03/29 04:03:41;;;;;;;15.63;10.05;;;5.70;48.40;;;;;;5095615;28;20189;-62
2022/03/29 04:06:09;;;;;;;13.98;9.65;;;5.70;48.80;;;;;;5102378;28;20184;-63
2022/03/29 04:08:36;;;;;;;16.67;8.95;;;5.70;48.30;;;;;;5116312;28;20196;-62
2022/03/29 04:11:06;;;;;;;16.38;9.93;;;5.70;48.00;;;;;;5109840;28;20215;-62
2022/03/29 04:13:34;;;;;;;15.40;10.45;;;5.70;48.20;;;;;;5095528;28;20290;-62
2022/03/29 04:16:02;;;;;;;18.00;9.65;;;5.70;48.40;;;;;;5100215;28;20277;-63
2022/03/29 04:18:29;;;;;;;16.90;9.70;;;5.70;48.40;;;;;;5114758;28;20238;-61
2022/03/29 04:20:56;;;;;;;15.60;9.65;;;5.70;48.20;;;;;;5095842;28;20202;-62
2022/03/29 04:23:23;;;;;;;17.15;10.25;;;5.70;48.10;;;;;;5095686;28;20200;-63
2022/03/29 04:25:51;;;;;;;14.27;9.32;;;5.60;48.90;;;;;;5115856;28;20201;-61
2022/03/29 04:28:20;;;;;;;16.45;10.25;;;5.50;48.70;;;;;;5108027;28;20181;-62
2022/03/29 04:30:48;;;;;;;20.38;10.38;;;5.50;48.60;;;;;;5095237;28;20226;-61
2022/03/29 04:33:15;;;;;;;14.10;9.48;;;5.50;49.10;;;;;;5100923;28;20198;-62
2022/03/29 04:35:42;;;;;;;18.13;10.35;;;5.50;49.70;;;;;;5115606;28;20612;-61
2022/03/29 04:38:10;;;;;;;13.70;10.20;;;5.60;50.10;;;;;;5109686;28;20185;-61
2022/03/29 04:40:38;;;;;;;11.65;8.98;;;5.70;50.30;;;;;;5095041;28;20196;-61
2022/03/29 04:43:05;;;;;;;21.90;12.10;;;5.60;49.70;;;;;;5098348;28;20233;-62
2022/03/29 04:45:34;;;;;;;17.13;11.25;;;5.70;49.90;;;;;;5115197;28;20184;-64
2022/03/29 04:48:01;;;;;;;14.82;10.35;;;5.70;50.10;;;;;;5102989;28;20234;-62
2022/03/29 04:50:29;;;;;;;17.08;10.75;;;5.70;50.30;;;;;;5094703;28;20216;-62
2022/03/29 04:52:57;;;;;;;14.68;11.20;;;5.70;50.00;;;;;;5105109;28;20188;-62
2022/03/29 04:55:24;;;;;;;17.33;10.00;;;5.80;49.90;;;;;;5115294;28;20198;-62
2022/03/29 04:57:52;;;;;;;15.00;10.52;;;5.80;49.30;;;;;;5105252;28;20185;-62
2022/03/29 05:00:21;;;;;;;18.70;10.82;;;5.80;49.00;;;;;;5094790;28;20531;-62
2022/03/29 05:02:50;;;;;;;13.45;9.65;;;5.80;49.00;;;;;;5102375;28;20211;-63
2022/03/29 05:05:18;;;;;;;21.00;13.15;;;5.80;49.40;;;;;;5114343;28;20641;-62
2022/03/29 05:07:46;;;;;;;17.33;11.82;;;5.70;49.20;;;;;;5106739;28;20269;-62
2022/03/29 05:10:14;;;;;;;19.05;12.48;;;5.70;49.20;;;;;;5094363;28;20758;-62
2022/03/29 05:12:43;;;;;;;18.13;12.43;;;5.70;48.90;;;;;;5104170;28;20223;-62
2022/03/29 05:15:11;;;;;;;24.08;14.30;;;5.60;48.50;;;;;;5111389;28;20830;-62
2022/03/29 05:17:38;;;;;;;19.63;11.45;;;5.60;49.00;;;;;;5093853;28;20258;-62
2022/03/29 05:20:09;;;;;;;20.33;12.57;;;5.60;49.40;;;;;;5095241;28;20275;-62
2022/03/29 05:22:43;;;;;;;16.90;11.63;;;5.60;49.40;;;;;;5114422;28;20229;-62
2022/03/29 05:25:11;;;;;;;13.93;10.80;;;5.50;49.50;;;;;;5112690;28;20283;-62
2022/03/29 05:27:39;;;;;;;17.63;11.40;;;5.50;49.10;;;;;;5093985;28;20189;-62
2022/03/29 05:30:07;;;;;;;14.85;11.20;;;5.30;48.60;;;;;;5094058;28;20220;-63
2022/03/29 05:32:35;;;;;;;20.50;12.70;;;5.20;48.90;;;;;;5114432;28;20196;-62
2022/03/29 05:35:05;;;;;;;19.55;11.05;;;5.20;49.30;;;;;;5099829;28;20632;-62
2022/03/29 05:37:34;;;;;;;19.98;12.55;;;5.10;49.70;;;;;;5093431;28;20200;-62
2022/03/29 05:40:02;;;;;;;19.83;11.90;;;5.10;49.60;;;;;;5094952;28;20193;-65
2022/03/29 05:42:30;;;;;;;23.52;12.10;;;5.10;49.90;;;;;;5093904;28;20254;-63
2022/03/29 05:44:58;;;;;;;17.88;11.13;;;5.10;50.40;;;;;;5107367;28;20196;-63
2022/03/29 05:50:10;;;;;;;16.17;11.15;;;5.30;50.90;;;;;;5097235;28;20224;-64
2022/03/29 05:52:39;;;;;;;16.30;11.43;;;5.40;50.90;;;;;;5093670;28;20291;-62
2022/03/29 05:55:07;;;;;;;27.20;13.60;;;5.50;51.30;;;;;;5108611;28;20639;-63
2022/03/29 05:57:34;;;;;;;18.15;12.00;;;5.60;51.40;;;;;;5114073;27;20192;-63
2022/03/29 06:00:02;;;;;;;19.55;11.30;;;5.70;50.60;;;;;;5098014;28;20643;-64
2022/03/29 06:02:30;;;;;;;22.88;11.73;;;5.60;50.30;;;;;;5093877;28;20527;-62
2022/03/29 06:04:57;;;;;;;21.40;11.52;;;5.60;50.40;;;;;;5108745;28;20271;-62
2022/03/29 06:07:24;;;;;;;16.73;10.95;;;5.80;50.40;;;;;;5113801;28;20237;-62
2022/03/29 06:09:53;;;;;;;14.77;10.57;;;5.80;50.40;;;;;;5099057;28;20223;-62
2022/03/29 06:12:22;;;;;;;15.25;10.05;;;5.80;50.30;;;;;;5097231;28;20230;-62
2022/03/29 06:14:49;;;;;;;20.65;11.70;;;5.90;50.20;;;;;;5113477;28;20224;-62
2022/03/29 06:17:17;;;;;;;20.38;12.05;;;5.90;50.30;;;;;;5100761;28;20185;-69
2022/03/29 06:19:44;;;;;;;24.02;11.73;;;6.00;50.20;;;;;;5113037;28;20193;-63
2022/03/29 06:22:11;;;;;;;19.58;11.73;;;6.00;49.80;;;;;;5114154;28;20241;-62
2022/03/29 06:24:38;;;;;;;21.55;12.43;;;6.10;49.90;;;;;;5107151;28;20184;-63
2022/03/29 06:27:07;;;;;;;18.17;11.32;;;6.20;49.80;;;;;;5087543;28;20242;-64
2022/03/29 06:29:34;;;;;;;22.20;13.45;;;6.30;50.10;;;;;;5093708;28;20564;-63
2022/03/29 06:32:01;;;;;;;19.60;11.80;;;6.40;50.20;;;;;;5093072;28;20196;-63
2022/03/29 06:34:29;;;;;;;15.82;11.20;;;6.60;50.00;;;;;;5094206;28;20185;-63
2022/03/29 06:36:56;;;;;;;19.90;12.07;;;6.60;50.50;;;;;;5092947;28;20279;-62
2022/03/29 06:39:23;;;;;;;19.73;11.55;;;6.80;50.00;;;;;;5092638;28;20189;-62
2022/03/29 06:41:51;;;;;;;20.02;11.68;;;6.90;49.40;;;;;;5093093;28;20276;-65
2022/03/29 06:44:19;;;;;;;25.55;13.10;;;7.00;49.10;;;;;;5091853;28;20189;-62
2022/03/29 06:46:47;;;;;;;18.75;12.95;;;7.20;50.10;;;;;;5094080;28;20268;-62
2022/03/29 06:49:14;;;;;;;21.02;10.10;;;7.40;49.90;;;;;;5108039;28;20663;-62
2022/03/29 06:51:41;;;;;;;16.55;9.93;;;7.60;50.30;;;;;;5112948;28;20216;-62
2022/03/29 06:54:09;;;;;;;16.52;11.18;;;8.00;50.00;;;;;;5095887;28;20556;-64
2022/03/29 06:56:36;;;;;;;18.60;11.52;;;8.30;49.30;;;;;;5092927;28;20279;-63
2022/03/29 06:59:03;;;;;;;23.38;11.52;;;8.60;49.10;;;;;;5092893;28;20725;-63
2022/03/29 07:01:32;;;;;;;20.55;13.80;;;9.00;48.90;;;;;;5096626;28;20655;-63
2022/03/29 07:03:59;;;;;;;19.83;12.75;;;9.40;48.50;;;;;;5104178;28;20201;-63
2022/03/29 07:06:30;;;;;;;19.88;12.20;;;9.70;47.40;;;;;;5093359;28;20193;-63
2022/03/29 07:11:41;;;;;;;21.30;11.15;;;10.30;44.00;;;;;;5093022;28;20215;-63
2022/03/29 07:14:08;;;;;;;18.45;11.00;;;10.60;42.50;;;;;;5092812;28;20320;-62
2022/03/29 07:16:38;;;;;;;23.50;12.73;;;10.70;42.80;;;;;;5092860;28;20185;-64
2022/03/29 07:19:05;;;;;;;23.92;14.57;;;11.00;42.70;;;;;;5092362;28;20189;-63
2022/03/29 07:21:33;;;;;;;30.88;17.25;;;11.20;42.30;;;;;;5093095;28;20189;-63
2022/03/29 07:23:59;;;;;;;36.00;18.27;;;11.40;42.60;;;;;;5093121;28;20291;-63
2022/03/29 07:26:30;;;;;;;40.03;18.20;;;11.60;41.10;;;;;;5092840;28;20189;-63
2022/03/29 07:28:57;;;;;;;30.67;17.02;;;11.80;41.60;;;;;;5093000;28;20258;-63
2022/03/29 07:31:25;;;;;;;21.70;12.13;;;12.10;40.50;;;;;;5094729;28;20277;-63
2022/03/29 07:33:53;;;;;;;18.58;12.93;;;12.40;40.50;;;;;;5096876;28;20192;-63
2022/03/29 07:36:20;;;;;;;20.25;12.60;;;12.70;40.50;;;;;;5096860;28;20189;-63
2022/03/29 07:38:48;;;;;;;20.38;13.18;;;13.10;40.70;;;;;;5096952;28;20239;-63
2022/03/29 07:41:15;;;;;;;24.02;13.35;;;13.40;40.30;;;;;;5096921;28;20234;-63
2022/03/29 07:43:42;;;;;;;17.17;11.60;;;13.60;39.50;;;;;;5096495;28;20280;-63
2022/03/29 07:46:08;;;;;;;18.08;11.90;;;14.10;40.80;;;;;;5096504;28;20283;-63
2022/03/29 07:48:36;;;;;;;17.05;12.20;;;14.60;40.40;;;;;;5096540;28;20220;-63
2022/03/29 07:51:05;;;;;;;18.23;12.27;;;15.20;38.90;;;;;;5096663;28;20220;-63
2022/03/29 07:53:32;;;;;;;15.60;12.10;;;15.80;38.80;;;;;;5096656;28;20288;-64
2022/03/29 07:55:59;;;;;;;19.80;13.20;;;16.30;37.60;;;;;;5096453;28;20284;-64
2022/03/29 07:58:26;;;;;;;20.35;13.25;;;16.70;37.00;;;;;;5096540;28;20243;-63
2022/03/29 08:00:53;;;;;;;17.52;12.48;;;17.30;37.50;;;;;;5096684;28;20228;-63
2022/03/29 08:03:21;;;;;;;16.77;11.90;;;18.40;36.60;;;;;;5095810;28;20228;-63
2022/03/29 08:05:50;;;;;;;17.80;11.93;;;19.60;35.50;;;;;;5096328;28;20438;-63
2022/03/29 08:08:20;;;;;;;14.83;11.93;;;20.80;33.50;;;;;;5096036;28;20489;-64
2022/03/29 08:10:48;;;;;;;19.83;11.73;;;21.50;30.50;;;;;;5096301;28;20549;-63
2022/03/29 08:13:15;;;;;;;14.63;10.83;;;22.10;29.90;;;;;;5096315;28;20475;-63
2022/03/29 08:15:43;;;;;;;12.53;11.00;;;22.80;30.00;;;;;;5096174;28;20860;-64
2022/03/29 08:18:11;;;;;;;17.40;11.70;;;23.60;28.50;;;;;;5096149;28;20512;-64
2022/03/29 08:20:38;;;;;;;20.80;10.53;;;24.40;27.60;;;;;;5096346;28;20435;-64
2022/03/29 08:23:06;;;;;;;14.57;11.43;;;24.90;26.50;;;;;;5095907;28;20478;-64
2022/03/29 08:25:36;;;;;;;13.93;10.80;;;25.60;25.40;;;;;;5095992;28;20522;-64
2022/03/29 08:28:04;;;;;;;14.50;10.13;;;26.10;24.20;;;;;;5096364;28;20439;-64
2022/03/29 08:30:32;;;;;;;12.50;10.77;;;26.00;23.00;;;;;;5095783;28;20507;-64
2022/03/29 08:33:00;;;;;;;12.13;10.10;;;25.80;21.10;;;;;;5095969;28;20431;-65
2022/03/29 08:35:27;;;;;;;14.77;10.70;;;25.70;22.90;;;;;;5096056;28;20514;-64
2022/03/29 08:37:54;;;;;;;17.57;10.07;;;25.70;21.70;;;;;;5095785;28;20501;-64
2022/03/29 08:40:26;;;;;;;14.97;10.53;;;25.90;20.60;;;;;;5095668;28;20501;-64
2022/03/29 08:42:58;;;;;;;12.57;10.47;;;26.10;19.80;;;;;;5095126;28;20542;-64
2022/03/29 08:45:27;;;;;;;16.07;11.70;;;26.60;20.80;;;;;;5095788;28;20467;-64
2022/03/29 08:47:56;;;;;;;14.00;11.03;;;27.20;20.40;;;;;;5095560;28;20981;-64
2022/03/29 08:50:25;;;;;;;14.30;11.57;;;27.60;19.60;;;;;;5095473;28;20431;-63
2022/03/29 08:52:53;;;;;;;12.43;10.00;;;28.00;19.10;;;;;;5095615;28;20475;-64
2022/03/29 08:55:21;;;;;;;16.43;11.90;;;27.80;18.50;;;;;;5095484;28;20543;-64
2022/03/29 08:57:52;;;;;;;14.87;11.23;;;27.40;18.70;;;;;;5095604;28;20447;-63
2022/03/29 09:00:20;;;;;;;14.20;10.93;;;27.10;17.60;;;;;;5095210;28;20457;-63
2022/03/29 09:02:47;;;;;;;17.27;11.67;;;27.00;17.80;;;;;;5094986;28;20534;-64
2022/03/29 09:05:15;;;;;;;17.40;11.53;;;27.10;18.70;;;;;;5095335;28;20542;-64
2022/03/29 09:07:50;;;;;;;13.93;10.97;;;27.30;19.40;;;;;;5095124;28;20439;-64
2022/03/29 09:10:17;;;;;;;13.90;10.93;;;27.70;19.00;;;;;;5095320;28;20438;-64
2022/03/29 09:12:45;;;;;;;16.80;10.73;;;27.90;18.60;;;;;;5095352;28;20512;-64
2022/03/29 09:15:12;;;;;;;14.37;11.37;;;28.50;17.70;;;;;;5095152;28;20553;-63
2022/03/29 09:17:42;;;;;;;17.13;11.40;;;28.90;17.10;;;;;;5095332;28;20486;-64
2022/03/29 09:20:14;;;;;;;15.97;11.50;;;29.10;15.90;;;;;;5095043;28;20446;-64
2022/03/29 09:22:44;;;;;;;15.10;11.93;;;29.70;15.90;;;;;;5094862;28;21029;-63
2022/03/29 09:25:15;;;;;;;17.77;12.53;;;30.40;14.40;;;;;;5095156;28;20940;-64
2022/03/29 09:28:10;;;;;;;17.93;13.40;;;30.60;14.30;;;;;;5094871;28;20759;-64
2022/03/29 09:30:39;;;;;;;13.60;11.40;;;30.70;14.00;;;;;;5083771;28;20937;-63
2022/03/29 09:33:10;;;;;;;18.53;14.20;;;30.90;13.80;;;;;;5094636;28;20913;-64
2022/03/29 09:35:53;;;;;;;14.63;12.37;;;31.30;13.70;;;;;;5094982;28;20431;-63
2022/03/29 09:38:27;;;;;;;13.20;11.80;;;31.50;12.30;;;;;;5094758;28;20434;-64
2022/03/29 09:40:54;;;;;;;16.60;11.67;;;31.10;12.10;;;;;;5094943;28;20557;-63
2022/03/29 09:43:23;;;;;;;17.43;11.50;;;30.70;13.00;;;;;;5094783;28;20488;-63
2022/03/29 09:45:53;;;;;;;14.17;11.80;;;30.40;12.50;;;;;;5094786;28;20427;-63
2022/03/29 09:48:27;;;;;;;15.87;12.40;;;29.90;12.90;;;;;;5094482;28;20447;-64
2022/03/29 09:50:55;;;;;;;13.70;12.20;;;29.40;12.50;;;;;;5094812;28;20446;-63
2022/03/29 09:53:36;;;;;;;15.20;12.23;;;28.50;12.90;;;;;;5093440;28;20501;-64
2022/03/29 09:56:04;;;;;;;19.23;13.00;;;27.70;13.50;;;;;;5093715;28;20921;-63
2022/03/29 09:58:31;;;;;;;15.57;11.67;;;26.90;13.90;;;;;;5094456;28;20479;-64
2022/03/29 10:00:58;;;;;;;15.53;11.20;;;26.20;13.90;;;;;;5094389;28;20467;-64
2022/03/29 10:03:27;;;;;;;16.43;11.97;;;25.50;14.50;;;;;;5094061;28;20443;-63
2022/03/29 10:06:01;;;;;;;16.40;13.00;;;25.00;15.20;;;;;;5094392;28;20467;-63
2022/03/29 10:11:14;;;;;;;14.57;11.80;;;24.20;15.40;;;;;;5094122;28;21046;-63
2022/03/29 10:13:42;;;;;;;15.40;11.87;;;23.70;15.50;;;;;;5093940;28;20435;-63
2022/03/29 10:16:13;;;;;;;19.90;12.53;;;23.30;16.10;;;;;;5093673;28;20469;-63
2022/03/29 10:18:43;;;;;;;17.80;13.17;;;23.10;16.10;;;;;;5094016;28;20439;-63
2022/03/29 10:21:13;;;;;;;14.90;12.13;;;23.00;16.50;;;;;;5090142;28;20506;-63
2022/03/29 10:23:43;;;;;;;18.43;11.97;;;23.00;16.30;;;;;;5093726;28;20435;-63
2022/03/29 10:26:10;;;;;;;14.53;10.67;;;23.10;16.40;;;;;;5094036;28;20467;-63
2022/03/29 10:28:37;;;;;;;19.40;12.67;;;23.20;16.70;;;;;;5093422;28;20518;-63
2022/03/29 10:31:25;;;;;;;15.53;12.10;;;23.40;15.90;;;;;;5089929;28;20467;-64
2022/03/29 10:34:11;;;;;;;17.97;12.60;;;23.60;16.20;;;;;;5093709;28;20438;-63
2022/03/29 10:37:13;;;;;;;23.53;14.07;;;23.90;16.40;;;;;;5102927;28;20931;-63
2022/03/29 10:39:52;;;;;;;17.33;11.83;;;24.20;16.20;;;;;;5113726;28;20487;-64
2022/03/29 10:42:41;;;;;;;17.13;12.30;;;24.40;16.40;;;;;;5099294;28;20474;-63
2022/03/29 10:45:22;;;;;;;15.10;12.43;;;24.60;16.20;;;;;;5093980;28;20435;-64
2022/03/29 10:48:05;;;;;;;19.67;13.57;;;24.50;15.80;;;;;;5111558;28;20936;-63
2022/03/29 10:51:09;;;;;;;18.93;13.00;;;24.30;15.60;;;;;;5103734;28;20427;-63
2022/03/29 10:53:42;;;;;;;16.17;12.97;;;24.00;15.30;;;;;;5079873;28;20442;-63
2022/03/29 10:56:25;;;;;;;16.00;11.63;;;23.80;15.60;;;;;;5100521;28;20858;-63
2022/03/29 10:59:12;;;;;;;14.97;10.67;;;23.80;16.30;;;;;;5109798;28;20454;-63
2022/03/29 11:01:40;;;;;;;18.30;10.77;;;23.60;15.90;;;;;;5093358;28;20478;-64
2022/03/29 11:04:14;;;;;;;23.23;12.63;;;23.40;15.80;;;;;;5101463;28;20431;-63
2022/03/29 11:07:14;;;;;;;15.30;11.53;;;23.30;16.00;;;;;;5113438;28;20521;-63
2022/03/29 11:09:47;;;;;;;22.10;13.03;;;23.20;16.80;;;;;;5102833;28;20445;-63
2022/03/29 11:12:40;;;;;;;14.93;11.83;;;23.20;16.30;;;;;;5110763;28;20491;-63
2022/03/29 11:15:45;;;;;;;16.03;11.50;;;23.20;16.70;;;;;;5112862;28;20455;-63
2022/03/29 11:18:40;;;;;;;15.20;12.00;;;23.30;17.00;;;;;;5095968;28;20500;-63
2022/03/29 11:21:28;;;;;;;15.73;11.90;;;23.30;16.60;;;;;;5067041;28;20443;-63
2022/03/29 11:23:58;;;;;;;16.13;12.40;;;23.40;16.70;;;;;;5074439;28;20447;-63
2022/03/29 11:26:27;;;;;;;12.83;11.53;;;23.40;16.20;;;;;;5070871;28;20704;-63
2022/03/29 11:28:56;;;;;;;14.30;11.57;;;23.50;16.40;;;;;;5070504;28;20452;-63
2022/03/29 11:31:25;;;;;;;19.97;11.50;;;23.60;16.00;;;;;;5085270;28;20446;-63
2022/03/29 11:33:56;;;;;;;20.93;12.30;;;23.70;16.00;;;;;;5092937;28;20447;-63
2022/03/29 11:36:23;;;;;;;18.70;12.60;;;23.80;16.00;;;;;;5093215;28;20518;-64
2022/03/29 11:38:50;;;;;;;17.50;12.77;;;24.00;16.40;;;;;;5092564;28;20431;-63
2022/03/29 11:41:25;;;;;;;14.37;12.73;;;24.20;17.20;;;;;;5093064;28;20521;-63
2022/03/29 11:43:55;;;;;;;15.67;11.43;;;24.40;17.20;;;;;;5093100;28;20434;-64
2022/03/29 11:46:23;;;;;;;15.30;13.50;;;24.70;16.40;;;;;;5093068;28;20542;-63
2022/03/29 11:48:51;;;;;;;14.77;12.10;;;24.90;16.50;;;;;;5092888;28;20529;-63
2022/03/29 11:51:18;;;;;;;15.53;12.30;;;24.80;15.90;;;;;;5092824;28;21005;-63
2022/03/29 11:53:58;;;;;;;18.23;12.60;;;24.60;15.90;;;;;;5092810;28;20525;-63
2022/03/29 11:56:25;;;;;;;16.60;11.40;;;24.40;15.90;;;;;;5092895;28;20467;-63
2022/03/29 11:58:56;;;;;;;16.53;12.50;;;24.30;16.10;;;;;;5092724;28;20533;-63
2022/03/29 12:01:25;;;;;;;16.37;12.63;;;24.20;16.50;;;;;;5092795;28;20485;-63
2022/03/29 12:03:55;;;;;;;18.27;12.63;;;24.00;16.40;;;;;;5092643;28;20527;-63
2022/03/29 12:06:25;;;;;;;19.80;12.30;;;23.90;16.10;;;;;;5092539;28;20439;-64
2022/03/29 12:08:55;;;;;;;15.40;12.20;;;23.70;16.40;;;;;;5092378;28;20521;-63
2022/03/29 12:11:25;;;;;;;18.60;12.50;;;23.70;17.00;;;;;;5092777;28;20468;-63
2022/03/29 12:14:06;;;;;;;21.43;12.00;;;23.60;16.70;;;;;;5092591;28;20515;-63
2022/03/29 12:16:36;;;;;;;14.60;12.43;;;23.60;17.00;;;;;;5092791;28;20466;-64
2022/03/29 12:19:07;;;;;;;14.93;11.83;;;23.80;16.90;;;;;;5095146;28;20439;-63
2022/03/29 12:21:35;;;;;;;14.90;11.73;;;24.00;16.50;;;;;;5096350;28;20439;-63
2022/03/29 12:24:06;;;;;;;16.67;12.30;;;24.20;17.00;;;;;;5095882;28;20470;-63
2022/03/29 12:26:34;;;;;;;16.70;12.70;;;24.30;17.20;;;;;;5096137;28;20914;-64
2022/03/29 12:29:02;;;;;;;16.07;12.70;;;24.50;17.00;;;;;;5096363;28;20768;-63
2022/03/29 12:31:30;;;;;;;17.03;11.77;;;24.70;17.10;;;;;;5095931;28;20478;-64
2022/03/29 12:33:58;;;;;;;15.83;10.87;;;25.30;17.20;;;;;;5096257;28;20787;-63
2022/03/29 12:36:26;;;;;;;17.87;13.37;;;26.00;16.90;;;;;;5096181;28;20788;-64
2022/03/29 12:38:55;;;;;;;15.43;11.90;;;27.20;16.40;;;;;;5095740;28;20784;-63
2022/03/29 12:41:34;;;;;;;17.23;10.90;;;28.30;15.50;;;;;;5095788;28;20435;-63
2022/03/29 12:44:03;;;;;;;15.30;10.47;;;29.40;15.60;;;;;;5095974;28;20524;-64
2022/03/29 12:46:39;;;;;;;14.87;9.47;;;30.10;14.60;;;;;;5095741;28;20794;-63
2022/03/29 12:49:19;;;;;;;13.13;10.47;;;30.60;13.60;;;;;;5095931;28;20426;-64
2022/03/29 12:51:54;;;;;;;12.70;7.93;;;30.80;12.30;;;;;;5096055;28;20514;-64
2022/03/29 12:54:21;;;;;;;13.70;9.80;;;30.80;11.70;;;;;;5095402;28;20951;-63
2022/03/29 12:56:48;;;;;;;14.47;8.87;;;30.40;11.10;;;;;;5095752;28;20502;-64